»·PEaware :: SWA2019 KSLC-KLAS

SWA2019 :: KSLC-KLAS

FLIGHT INFORMATION

Flight Status: Arrived
Operator:
Southwest Airlines
More flights by this operator :: More flights under this callsign
Pilot: Sam F. (29954)
Aircraft: BOEING 737-800
(B738)
More flights by this aircraft type
Origin: KSLC Salt Lake City Intl
United States
Destination: KLAS McCarran Intl
United States
More flights between these airports :: More routes between these airports
Route: ARCHZ1 MLF MPIRE SITEE4
File this flight plan on PilotEdge
Remarks: RMK / SIMBRIEF
Altitude:
(Current/Filed)
32,000ft
Speed:
(Current/Filed)
464kts
Departed: 31-Jul-20 04:57 PM
Arrived: 31-Jul-20 05:54 PM
Distance/Time
Traveled:
320nm/0:56
Distance/Time
To Go:
Arrived

Flight Plot

Page will automatically refresh every two minutes.


Map Options




Map Legend


Flown Route
Filed Route
Departure Airport
Arrival Airport
Navaid (VOR, NDB)
Fix

Horizontal Profiles

Position Reports

Time Latitude Longitude Heading Altitude Ground
Speed
31-Jul-20 16:29 40.789242 -111.978347 187 4238ft 0kts
31-Jul-20 16:30 40.789242 -111.978347 187 4237ft 0kts
31-Jul-20 16:31 40.789242 -111.978347 187 4237ft 0kts
31-Jul-20 16:32 40.789242 -111.978347 187 4237ft 0kts
31-Jul-20 16:33 40.789242 -111.978346 187 4237ft 0kts
31-Jul-20 16:34 40.789242 -111.978347 187 4237ft 0kts
31-Jul-20 16:35 40.789242 -111.978347 187 4237ft 0kts
31-Jul-20 16:36 40.789242 -111.978347 187 4237ft 0kts
31-Jul-20 16:37 40.789242 -111.978347 187 4237ft 0kts
31-Jul-20 16:38 40.789242 -111.978347 187 4237ft 0kts
31-Jul-20 16:39 40.789242 -111.978347 187 4237ft 0kts
31-Jul-20 16:40 40.789242 -111.978346 187 4237ft 0kts
31-Jul-20 16:41 40.789242 -111.978346 187 4237ft 0kts
31-Jul-20 16:42 40.789242 -111.978346 187 4237ft 0kts
31-Jul-20 16:43 40.789242 -111.978346 187 4237ft 0kts
31-Jul-20 16:44 40.789242 -111.978346 187 4237ft 0kts
31-Jul-20 16:45 40.789242 -111.978346 187 4237ft 0kts
31-Jul-20 16:46 40.789242 -111.978346 187 4237ft 0kts
31-Jul-20 16:47 40.789242 -111.978346 187 4237ft 0kts
31-Jul-20 16:48 40.789661 -111.978504 114 4237ft 2kts
31-Jul-20 16:49 40.789681 -111.978760 84 4237ft 0kts
31-Jul-20 16:50 40.789681 -111.978760 84 4237ft 0kts
31-Jul-20 16:51 40.789747 -111.977890 84 4237ft 8kts
31-Jul-20 16:52 40.786232 -111.976647 174 4237ft 23kts
31-Jul-20 16:53 40.780107 -111.975933 174 4237ft 20kts
31-Jul-20 16:54 40.776091 -111.974964 174 4237ft 12kts
31-Jul-20 16:55 40.774809 -111.973612 38 4237ft 8kts
31-Jul-20 16:56 40.789479 -111.974862 354 4237ft 157kts
31-Jul-20 16:57 40.841294 -111.992009 331 6228ft 216kts
31-Jul-20 16:58 40.904047 -112.035251 330 8267ft 274kts
31-Jul-20 16:59 40.950858 -112.108072 257 10641ft 294kts
31-Jul-20 17:00 40.886285 -112.178883 209 12447ft 337kts
31-Jul-20 17:01 40.800252 -112.240135 210 14585ft 360kts
31-Jul-20 17:02 40.706409 -112.289230 188 16921ft 377kts
31-Jul-20 17:03 40.600423 -112.305356 191 18953ft 391kts
31-Jul-20 17:04 40.494153 -112.340789 200 20874ft 400kts
31-Jul-20 17:05 40.386660 -112.384627 201 22656ft 412kts
31-Jul-20 17:06 40.275848 -112.429792 201 24292ft 424kts
31-Jul-20 17:07 40.164932 -112.484826 210 25825ft 431kts
31-Jul-20 17:08 40.057081 -112.557224 212 27250ft 442kts
31-Jul-20 17:09 39.947408 -112.633414 212 28577ft 452kts
31-Jul-20 17:10 39.834855 -112.712002 212 29826ft 462kts
31-Jul-20 17:11 39.721433 -112.790856 210 31377ft 464kts
31-Jul-20 17:12 39.595022 -112.831537 190 32116ft 476kts
31-Jul-20 17:13 39.464502 -112.851309 190 32119ft 471kts
31-Jul-20 17:14 39.333986 -112.870806 190 32119ft 471kts
31-Jul-20 17:15 39.204263 -112.890062 190 32119ft 470kts
31-Jul-20 17:16 39.074527 -112.909159 190 32127ft 469kts
31-Jul-20 17:17 38.945277 -112.928172 190 32139ft 471kts
31-Jul-20 17:18 38.814175 -112.947401 189 32146ft 473kts
31-Jul-20 17:19 38.683892 -112.966434 189 32146ft 472kts
31-Jul-20 17:20 38.553503 -112.985421 189 32146ft 471kts
31-Jul-20 17:21 38.423750 -113.004247 189 32146ft 470kts
31-Jul-20 17:22 38.301602 -113.053595 207 32145ft 460kts
31-Jul-20 17:23 38.185768 -113.121844 209 32152ft 459kts
31-Jul-20 17:25 38.070174 -113.191905 209 32193ft 459kts
31-Jul-20 17:26 37.955267 -113.261905 209 32225ft 459kts
31-Jul-20 17:27 37.840099 -113.331988 209 32228ft 459kts
31-Jul-20 17:28 37.725535 -113.401491 209 31784ft 453kts
31-Jul-20 17:29 37.611626 -113.470392 209 28190ft 459kts
31-Jul-20 17:30 37.496342 -113.539592 208 24401ft 457kts
31-Jul-20 17:31 37.382742 -113.607410 208 23998ft 457kts
31-Jul-20 17:32 37.268703 -113.675539 207 24000ft 454kts
31-Jul-20 17:33 37.154723 -113.743494 207 23999ft 455kts
31-Jul-20 17:34 37.040011 -113.811703 207 24000ft 459kts
31-Jul-20 17:35 36.923746 -113.880617 207 23999ft 463kts
31-Jul-20 17:36 36.808769 -113.948457 207 23247ft 431kts
31-Jul-20 17:37 36.704961 -114.009475 207 20653ft 405kts
31-Jul-20 17:38 36.606303 -114.069601 215 18539ft 380kts
31-Jul-20 17:39 36.535568 -114.163964 238 17198ft 374kts
31-Jul-20 17:40 36.480040 -114.271779 238 14764ft 365kts
31-Jul-20 17:41 36.426347 -114.376549 238 12670ft 348kts
31-Jul-20 17:41 36.385528 -114.455915 238 12026ft 312kts
31-Jul-20 17:43 36.332722 -114.558248 238 11989ft 302kts
31-Jul-20 17:44 36.272406 -114.625926 205 10900ft 297kts
31-Jul-20 17:44 36.211387 -114.657126 204 9695ft 281kts
31-Jul-20 17:45 36.140967 -114.692902 204 8436ft 260kts
31-Jul-20 17:47 36.079513 -114.747857 244 8015ft 235kts
31-Jul-20 17:47 36.073059 -114.814199 270 7993ft 235kts
31-Jul-20 17:48 36.073390 -114.895447 269 7989ft 235kts
31-Jul-20 17:50 36.073786 -114.981575 268 6006ft 190kts
31-Jul-20 17:50 36.073793 -115.032108 267 4272ft 165kts
31-Jul-20 17:51 36.073733 -115.086920 267 2749ft 153kts
31-Jul-20 17:52 36.073691 -115.138013 270 2189ft 116kts
31-Jul-20 17:53 36.074771 -115.150586 301 2189ft 0kts
31-Jul-20 17:54 36.074788 -115.150619 304 2189ft 2kts
31-Jul-20 17:55 36.077385 -115.152525 336 2189ft 10kts
31-Jul-20 17:56 36.078374 -115.153089 336 2189ft 9kts

Navigation Log

Ident Type
Flight plan parsing failed, navigation log unavailable